createdAt,value
2022-08-30T00:01:29.848Z,75.60
2022-08-30T00:03:58.683Z,75.70
2022-08-30T00:06:33.731Z,75.80
2022-08-30T00:11:48.609Z,75.80
2022-08-30T00:14:22.059Z,75.80
2022-08-30T00:16:55.853Z,76.00
2022-08-30T00:19:22.891Z,76.10
2022-08-30T00:21:56.664Z,76.10
2022-08-30T00:24:24.110Z,76.10
2022-08-30T00:26:57.570Z,76.10
2022-08-30T00:29:24.794Z,76.30
2022-08-30T00:31:58.784Z,76.40
2022-08-30T00:34:26.176Z,76.00
2022-08-30T00:37:00.102Z,75.80
2022-08-30T00:39:33.774Z,75.80
2022-08-30T00:42:07.824Z,75.60
2022-08-30T00:44:42.079Z,75.50
2022-08-30T00:47:09.629Z,75.40
2022-08-30T00:49:44.604Z,75.40
2022-08-30T00:52:12.869Z,75.50
2022-08-30T00:54:48.638Z,75.80
2022-08-30T00:57:15.861Z,75.70
2022-08-30T00:59:51.625Z,75.70
2022-08-30T01:02:21.695Z,75.50
2022-08-30T01:04:56.690Z,75.50
2022-08-30T01:07:32.468Z,75.50
2022-08-30T01:10:06.534Z,75.50
2022-08-30T01:12:33.899Z,75.70
2022-08-30T01:15:14.682Z,76.00
2022-08-30T01:17:48.612Z,75.80
2022-08-30T01:20:27.598Z,76.00
2022-08-30T01:23:08.761Z,75.70
2022-08-30T01:25:37.635Z,75.60
2022-08-30T01:28:17.558Z,75.50
2022-08-30T01:30:46.507Z,75.60
2022-08-30T01:33:20.820Z,75.50
2022-08-30T01:35:49.119Z,75.40
2022-08-30T01:38:17.234Z,75.50
2022-08-30T01:40:52.624Z,75.50
2022-08-30T01:43:27.285Z,75.50
2022-08-30T01:45:54.494Z,75.50
2022-08-30T01:48:31.266Z,75.60
2022-08-30T01:50:59.150Z,75.60
2022-08-30T01:53:33.534Z,75.70
2022-08-30T01:56:00.615Z,76.10
2022-08-30T01:58:35.681Z,75.90
2022-08-30T02:01:04.695Z,75.70
2022-08-30T02:03:41.815Z,75.60
2022-08-30T02:06:10.457Z,75.60
2022-08-30T02:08:44.532Z,75.60
2022-08-30T02:11:12.290Z,75.60
2022-08-30T02:13:53.623Z,75.60
2022-08-30T02:16:27.379Z,75.80
2022-08-30T02:19:01.630Z,75.80
2022-08-30T02:21:28.930Z,75.70
2022-08-30T02:24:02.530Z,75.60
2022-08-30T02:26:29.799Z,75.60
2022-08-30T02:29:05.102Z,75.60
2022-08-30T02:31:32.309Z,75.60
2022-08-30T02:33:59.624Z,75.60
2022-08-30T02:36:42.391Z,75.70
2022-08-30T02:39:16.670Z,75.70
2022-08-30T02:41:44.070Z,75.80
2022-08-30T02:44:11.461Z,75.80
2022-08-30T02:46:45.696Z,76.20
2022-08-30T02:49:34.951Z,76.20
2022-08-30T02:52:03.696Z,76.10
2022-08-30T02:54:39.690Z,76.00
2022-08-30T02:57:07.015Z,76.00
2022-08-30T02:59:46.382Z,75.90
2022-08-30T03:02:20.535Z,75.60
2022-08-30T03:04:54.751Z,75.50
2022-08-30T03:07:28.879Z,75.60
2022-08-30T03:09:56.124Z,75.50
2022-08-30T03:12:29.620Z,75.10
2022-08-30T03:15:11.890Z,75.10
2022-08-30T03:17:39.315Z,75.20
2022-08-30T03:20:13.569Z,75.20
2022-08-30T03:22:40.838Z,75.00
2022-08-30T03:25:14.611Z,75.00
2022-08-30T03:27:41.754Z,75.00
2022-08-30T03:30:16.710Z,74.90
2022-08-30T03:32:44.485Z,74.70
2022-08-30T03:35:12.339Z,74.70
2022-08-30T03:37:46.274Z,74.80
2022-08-30T03:40:15.450Z,75.00
2022-08-30T03:42:49.799Z,74.80
2022-08-30T03:45:18.149Z,74.70
2022-08-30T03:47:52.615Z,74.90
2022-08-30T03:50:26.870Z,74.80
2022-08-30T03:52:54.021Z,74.70
2022-08-30T03:55:27.819Z,74.80
2022-08-30T03:57:55.159Z,75.10
2022-08-30T04:00:29.555Z,75.20
2022-08-30T04:02:56.696Z,75.20
2022-08-30T04:05:23.805Z,75.30
2022-08-30T04:07:57.581Z,75.10
2022-08-30T04:10:24.582Z,75.10
2022-08-30T04:12:58.866Z,75.30
2022-08-30T04:15:39.580Z,75.50
2022-08-30T04:18:20.675Z,75.60
2022-08-30T04:20:47.934Z,75.70
2022-08-30T04:23:21.538Z,75.90
2022-08-30T04:25:55.825Z,76.10
2022-08-30T04:28:23.182Z,76.20
2022-08-30T04:30:56.861Z,76.30
2022-08-30T04:33:25.136Z,76.50
2022-08-30T04:35:58.839Z,76.70
2022-08-30T04:38:30.261Z,76.80
2022-08-30T04:41:04.916Z,76.80
2022-08-30T04:43:38.802Z,77.00
2022-08-30T04:46:13.832Z,77.30
2022-08-30T04:48:41.456Z,77.60
2022-08-30T04:51:17.239Z,77.80
2022-08-30T04:53:52.402Z,77.80
2022-08-30T04:56:29.741Z,78.00
2022-08-30T04:59:03.661Z,78.10
2022-08-30T05:01:45.332Z,78.20
2022-08-30T05:04:20.551Z,78.40
2022-08-30T05:06:47.721Z,78.50
2022-08-30T05:09:22.598Z,78.60
2022-08-30T05:11:49.955Z,78.60
2022-08-30T05:14:38.249Z,78.60
2022-08-30T05:17:06.063Z,78.70
2022-08-30T05:19:34.131Z,78.60
2022-08-30T05:22:07.645Z,78.60
2022-08-30T05:24:35.637Z,78.80
2022-08-30T05:27:09.721Z,78.80
2022-08-30T05:29:37.056Z,78.80
2022-08-30T05:32:11.095Z,79.00
2022-08-30T05:34:38.192Z,79.00
2022-08-30T05:37:11.691Z,78.90
2022-08-30T05:39:50.885Z,78.90
2022-08-30T05:42:25.962Z,78.80
2022-08-30T05:44:59.571Z,78.70
2022-08-30T05:47:26.762Z,78.80
2022-08-30T05:50:00.791Z,78.80
2022-08-30T05:52:34.822Z,78.80
2022-08-30T05:55:10.767Z,78.70
2022-08-30T05:57:40.032Z,78.70
2022-08-30T06:00:18.824Z,78.80
2022-08-30T06:02:46.278Z,78.80
2022-08-30T06:05:19.807Z,78.80
2022-08-30T06:07:53.964Z,78.80
2022-08-30T06:10:24.350Z,78.80
2022-08-30T06:12:58.901Z,78.80
2022-08-30T06:15:46.773Z,78.80
2022-08-30T06:18:14.062Z,78.70
2022-08-30T06:20:46.092Z,78.80
2022-08-30T06:23:24.650Z,79.00
2022-08-30T06:25:51.911Z,79.10
2022-08-30T06:28:21.399Z,79.20
2022-08-30T06:30:56.028Z,79.40
2022-08-30T06:33:23.428Z,79.40
2022-08-30T06:36:05.391Z,79.40
2022-08-30T06:38:34.729Z,79.00
2022-08-30T06:41:14.663Z,79.00
2022-08-30T06:43:49.397Z,78.80
2022-08-30T06:46:28.161Z,79.00
2022-08-30T06:49:23.783Z,79.20
2022-08-30T06:51:52.041Z,79.20
2022-08-30T06:54:27.856Z,79.30
2022-08-30T06:57:01.999Z,79.30
2022-08-30T06:59:29.431Z,79.30
2022-08-30T07:02:04.948Z,79.40
2022-08-30T07:04:32.814Z,79.10
2022-08-30T07:07:07.201Z,78.80
2022-08-30T07:09:35.964Z,78.90
2022-08-30T07:12:11.298Z,79.10
2022-08-30T07:14:45.053Z,79.30
2022-08-30T07:17:46.055Z,79.20
2022-08-30T07:20:14.152Z,79.30
2022-08-30T07:22:42.426Z,79.10
2022-08-30T07:25:17.741Z,79.00
2022-08-30T07:27:47.201Z,78.90
2022-08-30T07:30:21.005Z,78.90
2022-08-30T07:32:48.805Z,79.00
2022-08-30T07:35:22.726Z,79.10
2022-08-30T07:37:50.699Z,79.20
2022-08-30T07:40:25.755Z,79.30
2022-08-30T07:42:54.859Z,79.20
2022-08-30T07:45:29.929Z,79.10
2022-08-30T07:48:04.975Z,79.20
2022-08-30T07:50:41.061Z,79.20
2022-08-30T07:53:12.244Z,79.10
2022-08-30T07:55:46.969Z,79.10
2022-08-30T07:58:14.916Z,79.00
2022-08-30T08:00:50.191Z,78.90
2022-08-30T08:03:25.013Z,78.80
2022-08-30T08:05:53.775Z,78.80
2022-08-30T08:08:27.791Z,78.70
2022-08-30T08:10:55.456Z,78.70
2022-08-30T08:13:24.540Z,78.50
2022-08-30T08:16:03.962Z,78.40
2022-08-30T08:18:38.170Z,78.10
2022-08-30T08:21:12.950Z,77.90
2022-08-30T08:23:40.557Z,77.80
2022-08-30T08:26:17.022Z,77.40
2022-08-30T08:28:45.785Z,77.40
2022-08-30T08:31:25.516Z,77.20
2022-08-30T08:34:06.962Z,77.10
2022-08-30T08:36:42.192Z,77.00
2022-08-30T08:39:10.050Z,76.50
2022-08-30T08:41:44.190Z,76.20
2022-08-30T08:44:22.931Z,76.10
2022-08-30T08:47:03.001Z,75.70
2022-08-30T08:49:30.539Z,75.30
2022-08-30T08:52:23.828Z,74.80
2022-08-30T08:55:03.973Z,74.10
2022-08-30T08:57:34.084Z,74.00
2022-08-30T09:00:08.124Z,73.80
2022-08-30T09:02:47.806Z,73.70
2022-08-30T09:05:22.531Z,73.40
2022-08-30T09:07:59.696Z,73.00
2022-08-30T09:10:49.917Z,72.60
2022-08-30T09:13:19.578Z,72.30
2022-08-30T09:16:08.990Z,71.80
2022-08-30T09:21:47.786Z,71.00
2022-08-30T09:24:26.060Z,70.70
2022-08-30T09:27:00.338Z,70.60
2022-08-30T09:29:28.045Z,70.50
2022-08-30T09:32:24.595Z,70.20
2022-08-30T09:34:54.671Z,69.00
2022-08-30T09:37:37.960Z,68.10
2022-08-30T09:40:16.966Z,67.60
2022-08-30T09:42:59.744Z,67.50
2022-08-30T09:45:36.973Z,67.10
2022-08-30T09:48:30.115Z,66.60
2022-08-30T09:51:14.199Z,66.20
2022-08-30T09:54:17.019Z,65.50
2022-08-30T09:57:02.349Z,64.70
2022-08-30T09:59:44.419Z,64.00
2022-08-30T10:02:37.103Z,63.80
2022-08-30T10:05:23.033Z,63.70
2022-08-30T10:08:19.577Z,63.00
2022-08-30T10:11:00.028Z,63.10
2022-08-30T10:13:33.602Z,61.90
2022-08-30T10:16:12.702Z,60.70
2022-08-30T10:21:46.051Z,59.70
2022-08-30T10:24:28.190Z,59.40
2022-08-30T10:27:15.800Z,59.20
2022-08-30T10:29:47.708Z,58.60
2022-08-30T10:32:29.604Z,58.00
2022-08-30T10:35:06.046Z,57.90
2022-08-30T10:37:42.885Z,57.60
2022-08-30T10:40:43.977Z,57.20
2022-08-30T10:43:17.767Z,56.50
2022-08-30T10:45:54.225Z,56.40
2022-08-30T10:48:26.106Z,56.30
2022-08-30T10:51:03.290Z,56.00
2022-08-30T10:53:39.785Z,55.70
2022-08-30T10:56:09.075Z,55.50
2022-08-30T10:58:48.065Z,55.20
2022-08-30T11:01:17.342Z,54.40
2022-08-30T11:04:14.279Z,53.80
2022-08-30T11:07:00.104Z,53.10
2022-08-30T11:09:30.221Z,52.90
2022-08-30T11:12:07.506Z,52.80
2022-08-30T11:14:57.278Z,52.00
2022-08-30T11:17:36.399Z,52.00
2022-08-30T11:20:08.990Z,50.90
2022-08-30T11:22:43.977Z,50.30
2022-08-30T11:25:14.182Z,50.00
2022-08-30T11:27:55.712Z,49.60
2022-08-30T11:30:39.666Z,49.40
2022-08-30T11:33:14.411Z,49.20
2022-08-30T11:35:48.423Z,48.50
2022-08-30T11:38:30.838Z,48.30
2022-08-30T11:41:19.078Z,47.80
2022-08-30T11:44:15.318Z,47.40
2022-08-30T11:46:50.743Z,47.20
2022-08-30T11:49:27.633Z,47.30
2022-08-30T11:52:26.957Z,47.10
2022-08-30T11:55:11.174Z,47.00
2022-08-30T11:57:54.435Z,47.10
2022-08-30T12:00:28.872Z,46.50
2022-08-30T12:03:06.969Z,46.60
2022-08-30T12:05:51.467Z,46.50
2022-08-30T12:08:31.068Z,45.90
2022-08-30T12:10:58.168Z,45.20
2022-08-30T12:13:55.476Z,45.10
2022-08-30T12:17:17.978Z,44.30
2022-08-30T12:19:50.213Z,44.10
2022-08-30T12:22:26.173Z,44.50
2022-08-30T12:24:54.035Z,44.60
2022-08-30T12:27:39.218Z,44.30
2022-08-30T12:30:16.045Z,44.10
2022-08-30T12:32:50.683Z,44.10
2022-08-30T12:35:27.298Z,44.30
2022-08-30T12:38:00.533Z,44.60
2022-08-30T12:40:35.060Z,44.40
2022-08-30T12:43:24.736Z,44.30
2022-08-30T12:45:59.261Z,44.40
2022-08-30T12:48:36.285Z,44.50
2022-08-30T12:51:10.848Z,44.40
2022-08-30T12:53:42.146Z,44.00
2022-08-30T12:56:47.054Z,43.70
2022-08-30T12:59:10.323Z,43.80
2022-08-30T13:01:45.662Z,43.90
2022-08-30T13:04:25.223Z,44.00
2022-08-30T13:07:06.584Z,43.50
2022-08-30T13:09:40.633Z,43.40
2022-08-30T13:12:18.148Z,43.30
2022-08-30T13:15:06.863Z,43.70
2022-08-30T13:17:35.904Z,43.80
2022-08-30T13:20:19.203Z,43.70
2022-08-30T13:23:12.133Z,43.40
2022-08-30T13:25:41.294Z,43.50
2022-08-30T13:28:18.813Z,43.70
2022-08-30T13:30:46.831Z,43.60
2022-08-30T13:33:21.083Z,43.70
2022-08-30T13:35:55.816Z,43.60
2022-08-30T13:38:27.326Z,43.60
2022-08-30T13:41:09.144Z,43.50
2022-08-30T13:46:30.115Z,43.40
2022-08-30T13:54:51.327Z,42.90
2022-08-30T14:00:18.064Z,42.70
2022-08-30T14:02:54.042Z,42.40
2022-08-30T14:06:00.596Z,42.40
2022-08-30T14:08:48.845Z,42.00
2022-08-30T14:14:42.723Z,42.00
2022-08-30T14:17:17.950Z,42.40
2022-08-30T14:19:51.858Z,42.00
2022-08-30T14:22:28.058Z,42.10
2022-08-30T14:25:02.898Z,42.20
2022-08-30T14:27:30.898Z,42.20
2022-08-30T14:30:08.380Z,42.40
2022-08-30T14:32:45.993Z,42.90
2022-08-30T14:35:24.888Z,43.00
2022-08-30T14:38:02.948Z,43.20
2022-08-30T14:40:35.037Z,43.10
2022-08-30T14:43:13.140Z,42.90
2022-08-30T14:45:40.796Z,43.30
2022-08-30T14:48:21.604Z,43.80
2022-08-30T14:50:50.528Z,44.10
2022-08-30T14:53:27.403Z,44.30
2022-08-30T14:55:55.853Z,44.70
2022-08-30T14:58:45.872Z,44.90
2022-08-30T15:01:24.290Z,44.70
2022-08-30T15:03:53.442Z,45.00
2022-08-30T15:12:30.455Z,45.80
2022-08-30T15:15:05.663Z,46.20
2022-08-30T15:17:47.918Z,46.40
2022-08-30T15:23:08.238Z,46.70
2022-08-30T15:25:44.318Z,46.90
2022-08-30T15:28:22.160Z,47.00
2022-08-30T15:30:58.209Z,47.20
2022-08-30T15:33:29.503Z,47.60
2022-08-30T15:36:08.898Z,47.90
2022-08-30T15:38:37.393Z,48.20
2022-08-30T15:41:09.567Z,48.30
2022-08-30T15:43:45.050Z,48.30
2022-08-30T15:46:29.763Z,48.30
2022-08-30T15:49:07.950Z,48.40
2022-08-30T15:51:41.382Z,48.40
2022-08-30T15:54:19.313Z,48.50
2022-08-30T15:56:47.595Z,48.40
2022-08-30T15:59:26.499Z,48.50
2022-08-30T16:01:57.487Z,48.60
2022-08-30T16:04:25.601Z,48.70
2022-08-30T16:07:03.043Z,48.90
2022-08-30T16:09:39.828Z,48.90
2022-08-30T16:12:23.822Z,49.10
2022-08-30T16:18:19.263Z,49.50
2022-08-30T16:21:14.630Z,49.70
2022-08-30T16:24:01.473Z,49.80
2022-08-30T16:26:48.728Z,50.10
2022-08-30T16:29:19.411Z,50.40
2022-08-30T16:35:16.788Z,50.50
2022-08-30T16:38:09.814Z,50.60
2022-08-30T16:40:41.412Z,50.80
2022-08-30T16:43:41.448Z,51.00
2022-08-30T16:46:28.132Z,51.20
2022-08-30T16:49:05.588Z,51.40
2022-08-30T16:51:44.728Z,51.70
2022-08-30T16:54:12.223Z,51.90
2022-08-30T16:56:46.023Z,52.20
2022-08-30T16:59:21.193Z,52.30
2022-08-30T17:01:49.847Z,52.60
2022-08-30T17:04:24.093Z,52.90
2022-08-30T17:06:53.384Z,53.10
2022-08-30T17:09:34.264Z,53.30
2022-08-30T17:12:08.258Z,53.50
2022-08-30T17:14:38.633Z,53.70
2022-08-30T17:17:31.544Z,53.90
2022-08-30T17:20:05.273Z,54.10
2022-08-30T17:22:39.094Z,54.30
2022-08-30T17:25:07.949Z,54.50
2022-08-30T17:27:43.533Z,54.60
2022-08-30T17:30:23.513Z,54.80
2022-08-30T17:32:55.648Z,54.90
2022-08-30T17:35:33.133Z,55.00
2022-08-30T17:38:11.211Z,55.20
2022-08-30T17:40:45.194Z,55.40
2022-08-30T17:43:23.679Z,55.60
2022-08-30T17:45:51.468Z,55.70
2022-08-30T17:48:26.569Z,55.80
2022-08-30T17:50:57.835Z,56.00
2022-08-30T17:53:32.148Z,56.10
2022-08-30T17:56:00.808Z,56.10
2022-08-30T17:58:35.468Z,56.30
2022-08-30T18:01:12.480Z,56.30
2022-08-30T18:04:01.996Z,56.40
2022-08-30T18:06:40.108Z,56.50
2022-08-30T18:09:15.173Z,56.60
2022-08-30T18:11:52.129Z,56.80
2022-08-30T18:14:31.189Z,56.90
2022-08-30T18:17:14.709Z,57.00
2022-08-30T18:19:56.098Z,57.20
2022-08-30T18:22:32.188Z,57.40
2022-08-30T18:25:02.456Z,57.50
2022-08-30T18:27:39.249Z,57.50
2022-08-30T18:30:11.575Z,57.60
2022-08-30T18:32:46.224Z,57.60
2022-08-30T18:35:20.308Z,57.70
2022-08-30T18:37:48.148Z,57.60
2022-08-30T18:40:18.786Z,57.70
2022-08-30T18:42:53.170Z,57.70
2022-08-30T18:45:20.978Z,57.80
2022-08-30T18:47:58.444Z,57.80
2022-08-30T18:50:26.288Z,57.80
2022-08-30T18:53:01.144Z,57.80
2022-08-30T18:55:30.513Z,57.80
2022-08-30T18:58:04.351Z,57.90
2022-08-30T19:00:40.429Z,58.00
2022-08-30T19:03:15.128Z,58.00
2022-08-30T19:05:42.475Z,58.10
2022-08-30T19:08:17.463Z,58.20
2022-08-30T19:10:45.178Z,58.30
2022-08-30T19:13:35.078Z,58.40
2022-08-30T19:16:16.403Z,58.60
2022-08-30T19:18:52.299Z,58.70
2022-08-30T19:21:27.994Z,58.80
2022-08-30T19:24:02.484Z,59.10
2022-08-30T19:26:31.723Z,59.40
2022-08-30T19:29:06.176Z,59.60
2022-08-30T19:31:41.209Z,59.70
2022-08-30T19:34:08.824Z,59.90
2022-08-30T19:36:43.243Z,60.10
2022-08-30T19:39:19.532Z,60.10
2022-08-30T19:41:54.174Z,60.30
2022-08-30T19:44:28.601Z,60.50
2022-08-30T19:47:07.514Z,60.80
2022-08-30T19:49:36.183Z,60.90
2022-08-30T19:52:11.123Z,61.00
2022-08-30T19:54:41.246Z,60.90
2022-08-30T19:57:27.778Z,60.90
2022-08-30T19:59:56.402Z,60.70
2022-08-30T20:02:31.517Z,60.70
2022-08-30T20:04:58.975Z,60.60
2022-08-30T20:07:38.498Z,60.50
2022-08-30T20:10:07.735Z,60.50
2022-08-30T20:12:37.946Z,60.40
2022-08-30T20:15:16.106Z,60.60
2022-08-30T20:18:05.589Z,60.70
2022-08-30T20:20:42.114Z,60.80
2022-08-30T20:23:19.792Z,60.90
2022-08-30T20:25:58.223Z,61.00
2022-08-30T20:28:32.327Z,61.10
2022-08-30T20:31:06.418Z,61.20
2022-08-30T20:33:37.089Z,61.30
2022-08-30T20:36:15.047Z,61.50
2022-08-30T20:38:42.853Z,61.70
2022-08-30T20:41:19.328Z,61.80
2022-08-30T20:43:47.394Z,62.00
2022-08-30T20:46:23.372Z,62.30
2022-08-30T20:48:52.106Z,62.30
2022-08-30T20:51:30.049Z,62.40
2022-08-30T20:53:57.584Z,62.60
2022-08-30T20:56:35.479Z,62.60
2022-08-30T20:59:11.202Z,62.80
2022-08-30T21:01:40.819Z,63.10
2022-08-30T21:04:16.409Z,63.20
2022-08-30T21:06:44.719Z,63.50
2022-08-30T21:09:19.729Z,63.60
2022-08-30T21:11:58.091Z,63.90
2022-08-30T21:14:25.410Z,64.10
2022-08-30T21:17:14.279Z,64.40
2022-08-30T21:19:43.983Z,64.60
2022-08-30T21:22:20.040Z,64.60
2022-08-30T21:24:47.919Z,64.70
2022-08-30T21:27:22.747Z,64.90
2022-08-30T21:29:56.179Z,65.10
2022-08-30T21:32:30.030Z,65.30
2022-08-30T21:35:16.009Z,65.30
2022-08-30T21:37:50.070Z,65.40
2022-08-30T21:40:25.178Z,65.60
2022-08-30T21:43:02.553Z,66.00
2022-08-30T21:45:33.041Z,66.20
2022-08-30T21:48:07.284Z,66.00
2022-08-30T21:50:35.009Z,66.10
2022-08-30T21:53:09.726Z,66.50
2022-08-30T21:55:37.383Z,66.40
2022-08-30T21:58:11.609Z,66.50
2022-08-30T22:00:39.314Z,66.70
2022-08-30T22:03:13.358Z,66.70
2022-08-30T22:05:41.490Z,67.10
2022-08-30T22:08:15.130Z,67.10
2022-08-30T22:10:52.020Z,67.30
2022-08-30T22:13:21.209Z,67.40
2022-08-30T22:15:55.389Z,67.50
2022-08-30T22:18:30.589Z,67.70
2022-08-30T22:21:07.099Z,67.90
2022-08-30T22:23:41.749Z,68.10
2022-08-30T22:26:12.202Z,68.10
2022-08-30T22:28:40.182Z,68.10
2022-08-30T22:31:15.369Z,68.10
2022-08-30T22:33:43.719Z,68.20
2022-08-30T22:36:19.505Z,68.30
2022-08-30T22:38:47.810Z,68.10
2022-08-30T22:41:19.372Z,68.20
2022-08-30T22:44:00.190Z,68.40
2022-08-30T22:46:35.512Z,68.30
2022-08-30T22:49:06.341Z,68.50
2022-08-30T22:51:41.328Z,68.30
2022-08-30T22:54:11.158Z,68.30
2022-08-30T22:56:45.413Z,68.20
2022-08-30T22:59:19.619Z,68.30
2022-08-30T23:01:47.609Z,68.40
2022-08-30T23:04:21.959Z,68.50
2022-08-30T23:06:59.110Z,68.80
2022-08-30T23:09:29.946Z,68.90
2022-08-30T23:12:05.249Z,69.10
2022-08-30T23:14:39.764Z,69.10
2022-08-30T23:17:15.324Z,69.10
2022-08-30T23:19:53.781Z,68.90
2022-08-30T23:22:27.767Z,69.00
2022-08-30T23:25:16.017Z,68.80
2022-08-30T23:28:09.192Z,68.80
2022-08-30T23:30:55.231Z,68.80
2022-08-30T23:33:48.461Z,68.90
2022-08-30T23:36:34.300Z,69.10
2022-08-30T23:39:28.322Z,69.20
2022-08-30T23:42:23.293Z,69.30
2022-08-30T23:45:09.221Z,69.60
2022-08-30T23:48:01.191Z,69.60
2022-08-30T23:50:46.810Z,69.70
2022-08-30T23:53:39.419Z,69.70
2022-08-30T23:56:30.819Z,69.60
2022-08-30T23:59:22.972Z,69.60
